sensor_id;sensor_type;location;lat;lon;timestamp;temperature;humidity
1594;DHT22;790;47.000;16.084;2023-05-02T00:01:21;12.40;99.90
1594;DHT22;790;47.000;16.084;2023-05-02T00:03:48;12.40;99.90
1594;DHT22;790;47.000;16.084;2023-05-02T00:06:16;12.40;99.90
1594;DHT22;790;47.000;16.084;2023-05-02T00:08:46;12.40;99.90
1594;DHT22;790;47.000;16.084;2023-05-02T00:11:14;12.30;99.90
1594;DHT22;790;47.000;16.084;2023-05-02T00:13:41;12.30;99.90
1594;DHT22;790;47.000;16.084;2023-05-02T00:16:09;12.40;99.90
1594;DHT22;790;47.000;16.084;2023-05-02T00:18:37;12.40;99.90
1594;DHT22;790;47.000;16.084;2023-05-02T00:21:05;12.40;99.90
1594;DHT22;790;47.000;16.084;2023-05-02T00:23:33;12.40;99.90
1594;DHT22;790;47.000;16.084;2023-05-02T00:26:02;12.40;99.90
1594;DHT22;790;47.000;16.084;2023-05-02T00:28:29;12.30;99.90
1594;DHT22;790;47.000;16.084;2023-05-02T00:30:58;12.40;99.90
1594;DHT22;790;47.000;16.084;2023-05-02T00:33:25;12.30;99.90
1594;DHT22;790;47.000;16.084;2023-05-02T00:35:52;12.30;99.90
1594;DHT22;790;47.000;16.084;2023-05-02T00:38:19;12.30;99.90
1594;DHT22;790;47.000;16.084;2023-05-02T00:40:47;12.40;99.90
1594;DHT22;790;47.000;16.084;2023-05-02T00:43:17;12.40;99.90
1594;DHT22;790;47.000;16.084;2023-05-02T00:45:44;12.40;99.90
1594;DHT22;790;47.000;16.084;2023-05-02T00:48:12;12.40;99.90
1594;DHT22;790;47.000;16.084;2023-05-02T00:50:41;12.40;99.90
1594;DHT22;790;47.000;16.084;2023-05-02T00:53:09;12.40;99.90
1594;DHT22;790;47.000;16.084;2023-05-02T00:55:37;12.40;99.90
1594;DHT22;790;47.000;16.084;2023-05-02T00:58:07;12.30;99.90
1594;DHT22;790;47.000;16.084;2023-05-02T01:00:44;12.40;99.90
1594;DHT22;790;47.000;16.084;2023-05-02T01:03:19;12.40;99.90
1594;DHT22;790;47.000;16.084;2023-05-02T01:05:57;12.40;99.90
1594;DHT22;790;47.000;16.084;2023-05-02T01:08:34;12.40;99.90
1594;DHT22;790;47.000;16.084;2023-05-02T01:11:09;12.40;99.90
1594;DHT22;790;47.000;16.084;2023-05-02T01:13:42;12.40;99.90
1594;DHT22;790;47.000;16.084;2023-05-02T01:16:13;12.40;99.90
1594;DHT22;790;47.000;16.084;2023-05-02T01:18:44;12.40;99.90
1594;DHT22;790;47.000;16.084;2023-05-02T01:21:13;12.30;99.90
1594;DHT22;790;47.000;16.084;2023-05-02T01:23:45;12.30;99.90
1594;DHT22;790;47.000;16.084;2023-05-02T01:26:23;12.30;99.90
1594;DHT22;790;47.000;16.084;2023-05-02T01:28:59;12.30;99.90
1594;DHT22;790;47.000;16.084;2023-05-02T01:31:30;12.30;99.90
1594;DHT22;790;47.000;16.084;2023-05-02T01:33:59;12.20;99.90
1594;DHT22;790;47.000;16.084;2023-05-02T01:36:29;12.20;99.90
1594;DHT22;790;47.000;16.084;2023-05-02T01:38:59;12.20;99.90
1594;DHT22;790;47.000;16.084;2023-05-02T01:41:30;12.10;99.90
1594;DHT22;790;47.000;16.084;2023-05-02T01:44:01;12.10;99.90
1594;DHT22;790;47.000;16.084;2023-05-02T01:46:31;12.00;99.90
1594;DHT22;790;47.000;16.084;2023-05-02T01:49:02;12.10;99.90
1594;DHT22;790;47.000;16.084;2023-05-02T01:51:32;12.00;99.90
1594;DHT22;790;47.000;16.084;2023-05-02T01:54:02;12.00;99.90
1594;DHT22;790;47.000;16.084;2023-05-02T01:56:33;12.00;99.90
1594;DHT22;790;47.000;16.084;2023-05-02T01:59:05;12.00;99.90
1594;DHT22;790;47.000;16.084;2023-05-02T02:01:34;12.00;99.90
1594;DHT22;790;47.000;16.084;2023-05-02T02:04:03;12.00;99.90
1594;DHT22;790;47.000;16.084;2023-05-02T02:06:32;12.00;99.90
1594;DHT22;790;47.000;16.084;2023-05-02T02:08:59;12.00;99.90
1594;DHT22;790;47.000;16.084;2023-05-02T02:11:33;11.90;99.90
1594;DHT22;790;47.000;16.084;2023-05-02T02:14:05;11.90;99.90
1594;DHT22;790;47.000;16.084;2023-05-02T02:16:37;11.90;99.90
1594;DHT22;790;47.000;16.084;2023-05-02T02:19:07;11.90;99.90
1594;DHT22;790;47.000;16.084;2023-05-02T02:21:36;11.90;99.90
1594;DHT22;790;47.000;16.084;2023-05-02T02:24:05;11.90;99.90
1594;DHT22;790;47.000;16.084;2023-05-02T02:26:33;11.90;99.90
1594;DHT22;790;47.000;16.084;2023-05-02T02:29:02;11.90;99.90
1594;DHT22;790;47.000;16.084;2023-05-02T02:31:30;11.80;99.90
1594;DHT22;790;47.000;16.084;2023-05-02T02:33:58;11.80;99.90
1594;DHT22;790;47.000;16.084;2023-05-02T02:36:30;11.80;99.90
1594;DHT22;790;47.000;16.084;2023-05-02T02:39:13;11.80;99.90
1594;DHT22;790;47.000;16.084;2023-05-02T02:41:49;11.80;99.90
1594;DHT22;790;47.000;16.084;2023-05-02T02:44:30;11.90;99.90
1594;DHT22;790;47.000;16.084;2023-05-02T02:47:05;12.00;99.90
1594;DHT22;790;47.000;16.084;2023-05-02T02:49:46;12.00;99.90
1594;DHT22;790;47.000;16.084;2023-05-02T02:52:20;12.00;99.90
1594;DHT22;790;47.000;16.084;2023-05-02T02:55:02;11.90;99.90
1594;DHT22;790;47.000;16.084;2023-05-02T02:57:41;11.90;99.90
1594;DHT22;790;47.000;16.084;2023-05-02T03:00:16;11.80;99.90
1594;DHT22;790;47.000;16.084;2023-05-02T03:02:46;11.80;99.90
1594;DHT22;790;47.000;16.084;2023-05-02T03:05:14;11.90;99.90
1594;DHT22;790;47.000;16.084;2023-05-02T03:07:42;11.90;99.90
1594;DHT22;790;47.000;16.084;2023-05-02T03:10:09;11.90;99.90
1594;DHT22;790;47.000;16.084;2023-05-02T03:12:36;11.90;99.90
1594;DHT22;790;47.000;16.084;2023-05-02T03:15:17;12.00;99.90
1594;DHT22;790;47.000;16.084;2023-05-02T03:17:46;12.10;99.90
1594;DHT22;790;47.000;16.084;2023-05-02T03:20:13;12.10;99.90
1594;DHT22;790;47.000;16.084;2023-05-02T03:22:40;12.00;99.90
1594;DHT22;790;47.000;16.084;2023-05-02T03:25:08;12.10;99.90
1594;DHT22;790;47.000;16.084;2023-05-02T03:27:35;12.10;99.90
1594;DHT22;790;47.000;16.084;2023-05-02T03:30:03;12.00;99.90
1594;DHT22;790;47.000;16.084;2023-05-02T03:32:32;12.00;99.90
1594;DHT22;790;47.000;16.084;2023-05-02T03:34:59;12.00;99.90
1594;DHT22;790;47.000;16.084;2023-05-02T03:37:26;11.90;99.90
1594;DHT22;790;47.000;16.084;2023-05-02T03:39:53;11.80;99.90
1594;DHT22;790;47.000;16.084;2023-05-02T03:42:20;11.80;99.90
1594;DHT22;790;47.000;16.084;2023-05-02T03:44:51;11.80;99.90
1594;DHT22;790;47.000;16.084;2023-05-02T03:47:18;11.70;99.90
1594;DHT22;790;47.000;16.084;2023-05-02T03:49:47;11.80;99.90
1594;DHT22;790;47.000;16.084;2023-05-02T03:52:15;11.80;99.90
1594;DHT22;790;47.000;16.084;2023-05-02T03:54:42;11.80;99.90
1594;DHT22;790;47.000;16.084;2023-05-02T03:57:09;11.90;99.90
1594;DHT22;790;47.000;16.084;2023-05-02T03:59:38;11.90;99.90
1594;DHT22;790;47.000;16.084;2023-05-02T04:02:07;12.00;99.90
1594;DHT22;790;47.000;16.084;2023-05-02T04:04:35;12.10;99.90
1594;DHT22;790;47.000;16.084;2023-05-02T04:07:04;12.10;99.90
1594;DHT22;790;47.000;16.084;2023-05-02T04:09:32;12.10;99.90
1594;DHT22;790;47.000;16.084;2023-05-02T04:11:59;12.10;99.90
1594;DHT22;790;47.000;16.084;2023-05-02T04:14:27;12.20;99.90
1594;DHT22;790;47.000;16.084;2023-05-02T04:16:54;12.30;99.90
1594;DHT22;790;47.000;16.084;2023-05-02T04:19:21;12.30;99.90
1594;DHT22;790;47.000;16.084;2023-05-02T04:21:48;12.30;99.90
1594;DHT22;790;47.000;16.084;2023-05-02T04:24:17;12.30;99.90
1594;DHT22;790;47.000;16.084;2023-05-02T04:26:44;12.30;99.90
1594;DHT22;790;47.000;16.084;2023-05-02T04:29:12;12.30;99.90
1594;DHT22;790;47.000;16.084;2023-05-02T04:31:39;12.30;99.90
1594;DHT22;790;47.000;16.084;2023-05-02T04:34:07;12.30;99.90
1594;DHT22;790;47.000;16.084;2023-05-02T04:36:34;12.40;99.90
1594;DHT22;790;47.000;16.084;2023-05-02T04:39:02;12.40;99.90
1594;DHT22;790;47.000;16.084;2023-05-02T04:41:31;12.50;99.90
1594;DHT22;790;47.000;16.084;2023-05-02T04:43:58;12.40;99.90
1594;DHT22;790;47.000;16.084;2023-05-02T04:46:25;12.50;99.90
1594;DHT22;790;47.000;16.084;2023-05-02T04:48:53;12.40;99.90
1594;DHT22;790;47.000;16.084;2023-05-02T04:51:20;12.50;99.90
1594;DHT22;790;47.000;16.084;2023-05-02T04:53:47;12.60;99.90
1594;DHT22;790;47.000;16.084;2023-05-02T04:56:15;12.60;99.90
1594;DHT22;790;47.000;16.084;2023-05-02T04:58:43;12.70;99.90
1594;DHT22;790;47.000;16.084;2023-05-02T05:01:11;12.70;99.90
1594;DHT22;790;47.000;16.084;2023-05-02T05:03:38;12.70;99.90
1594;DHT22;790;47.000;16.084;2023-05-02T05:06:05;12.80;99.90
1594;DHT22;790;47.000;16.084;2023-05-02T05:08:32;12.80;99.90
1594;DHT22;790;47.000;16.084;2023-05-02T05:10:59;12.80;99.90
1594;DHT22;790;47.000;16.084;2023-05-02T05:13:26;12.70;99.90
1594;DHT22;790;47.000;16.084;2023-05-02T05:15:55;12.70;99.90
1594;DHT22;790;47.000;16.084;2023-05-02T05:18:22;12.80;99.90
1594;DHT22;790;47.000;16.084;2023-05-02T05:20:50;12.80;99.90
1594;DHT22;790;47.000;16.084;2023-05-02T05:23:17;12.70;99.90
1594;DHT22;790;47.000;16.084;2023-05-02T05:25:44;12.70;99.90
1594;DHT22;790;47.000;16.084;2023-05-02T05:28:11;12.70;99.90
1594;DHT22;790;47.000;16.084;2023-05-02T05:30:39;12.70;99.90
1594;DHT22;790;47.000;16.084;2023-05-02T05:33:07;12.80;99.90
1594;DHT22;790;47.000;16.084;2023-05-02T05:35:34;12.90;99.90
1594;DHT22;790;47.000;16.084;2023-05-02T05:38:01;12.90;99.90
1594;DHT22;790;47.000;16.084;2023-05-02T05:40:28;13.00;99.90
1594;DHT22;790;47.000;16.084;2023-05-02T05:42:56;13.00;99.90
1594;DHT22;790;47.000;16.084;2023-05-02T05:45:23;13.10;99.90
1594;DHT22;790;47.000;16.084;2023-05-02T05:47:50;13.10;99.90
1594;DHT22;790;47.000;16.084;2023-05-02T05:50:21;13.20;99.90
1594;DHT22;790;47.000;16.084;2023-05-02T05:52:48;13.40;99.90
1594;DHT22;790;47.000;16.084;2023-05-02T05:55:15;13.50;99.90
1594;DHT22;790;47.000;16.084;2023-05-02T05:57:42;13.50;99.90
1594;DHT22;790;47.000;16.084;2023-05-02T06:00:11;13.60;99.90
1594;DHT22;790;47.000;16.084;2023-05-02T06:02:38;13.60;99.90
1594;DHT22;790;47.000;16.084;2023-05-02T06:05:05;13.80;99.90
1594;DHT22;790;47.000;16.084;2023-05-02T06:07:34;13.80;99.90
1594;DHT22;790;47.000;16.084;2023-05-02T06:10:02;13.90;99.90
1594;DHT22;790;47.000;16.084;2023-05-02T06:12:30;13.90;99.90
1594;DHT22;790;47.000;16.084;2023-05-02T06:14:57;14.00;99.90
1594;DHT22;790;47.000;16.084;2023-05-02T06:17:25;14.00;99.90
1594;DHT22;790;47.000;16.084;2023-05-02T06:19:52;14.00;99.90
1594;DHT22;790;47.000;16.084;2023-05-02T06:22:19;14.10;99.90
1594;DHT22;790;47.000;16.084;2023-05-02T06:24:48;14.20;99.90
1594;DHT22;790;47.000;16.084;2023-05-02T06:27:16;14.20;99.90
1594;DHT22;790;47.000;16.084;2023-05-02T06:29:45;14.30;99.90
1594;DHT22;790;47.000;16.084;2023-05-02T06:32:12;14.30;99.90
1594;DHT22;790;47.000;16.084;2023-05-02T06:34:39;14.30;99.90
1594;DHT22;790;47.000;16.084;2023-05-02T06:37:06;14.40;99.90
1594;DHT22;790;47.000;16.084;2023-05-02T06:39:35;14.30;99.90
1594;DHT22;790;47.000;16.084;2023-05-02T06:42:04;14.20;99.90
1594;DHT22;790;47.000;16.084;2023-05-02T06:44:32;14.20;99.90
1594;DHT22;790;47.000;16.084;2023-05-02T06:46:59;14.20;99.90
1594;DHT22;790;47.000;16.084;2023-05-02T06:49:26;14.10;99.90
1594;DHT22;790;47.000;16.084;2023-05-02T06:51:53;14.10;99.90
1594;DHT22;790;47.000;16.084;2023-05-02T06:54:20;14.20;99.90
1594;DHT22;790;47.000;16.084;2023-05-02T06:56:47;14.20;99.90
1594;DHT22;790;47.000;16.084;2023-05-02T06:59:16;14.20;99.90
1594;DHT22;790;47.000;16.084;2023-05-02T07:01:43;14.30;99.90
1594;DHT22;790;47.000;16.084;2023-05-02T07:04:10;14.20;99.90
1594;DHT22;790;47.000;16.084;2023-05-02T07:06:38;14.20;99.90
1594;DHT22;790;47.000;16.084;2023-05-02T07:09:05;14.40;99.90
1594;DHT22;790;47.000;16.084;2023-05-02T07:11:32;14.50;99.90
1594;DHT22;790;47.000;16.084;2023-05-02T07:13:59;14.30;99.90
1594;DHT22;790;47.000;16.084;2023-05-02T07:16:28;14.30;99.90
1594;DHT22;790;47.000;16.084;2023-05-02T07:18:55;14.30;99.90
1594;DHT22;790;47.000;16.084;2023-05-02T07:21:22;14.30;99.90
1594;DHT22;790;47.000;16.084;2023-05-02T07:23:49;14.30;99.90
1594;DHT22;790;47.000;16.084;2023-05-02T07:26:17;14.30;99.90
1594;DHT22;790;47.000;16.084;2023-05-02T07:28:44;14.30;99.90
1594;DHT22;790;47.000;16.084;2023-05-02T07:31:11;14.50;99.90
1594;DHT22;790;47.000;16.084;2023-05-02T07:33:40;14.50;99.90
1594;DHT22;790;47.000;16.084;2023-05-02T07:36:07;14.70;99.90
1594;DHT22;790;47.000;16.084;2023-05-02T07:38:34;14.80;99.90
1594;DHT22;790;47.000;16.084;2023-05-02T07:41:01;14.90;99.90
1594;DHT22;790;47.000;16.084;2023-05-02T07:43:28;15.00;99.90
1594;DHT22;790;47.000;16.084;2023-05-02T07:45:56;15.10;99.90
1594;DHT22;790;47.000;16.084;2023-05-02T07:48:23;15.20;99.90
1594;DHT22;790;47.000;16.084;2023-05-02T07:50:51;15.30;99.90
1594;DHT22;790;47.000;16.084;2023-05-02T07:53:18;15.40;99.90
1594;DHT22;790;47.000;16.084;2023-05-02T07:55:45;15.50;99.90
1594;DHT22;790;47.000;16.084;2023-05-02T07:58:12;15.50;99.90
1594;DHT22;790;47.000;16.084;2023-05-02T08:00:40;15.60;99.90
1594;DHT22;790;47.000;16.084;2023-05-02T08:03:07;15.70;99.90
1594;DHT22;790;47.000;16.084;2023-05-02T08:05:34;15.90;99.90
1594;DHT22;790;47.000;16.084;2023-05-02T08:08:02;16.00;99.90
1594;DHT22;790;47.000;16.084;2023-05-02T08:10:30;16.00;99.90
1594;DHT22;790;47.000;16.084;2023-05-02T08:12:57;16.00;99.90
1594;DHT22;790;47.000;16.084;2023-05-02T08:15:24;15.90;99.90
1594;DHT22;790;47.000;16.084;2023-05-02T08:17:51;16.00;99.90
1594;DHT22;790;47.000;16.084;2023-05-02T08:20:19;16.00;99.90
1594;DHT22;790;47.000;16.084;2023-05-02T08:22:46;16.10;99.90
1594;DHT22;790;47.000;16.084;2023-05-02T08:25:16;16.10;99.90
1594;DHT22;790;47.000;16.084;2023-05-02T08:27:44;16.20;99.90
1594;DHT22;790;47.000;16.084;2023-05-02T08:30:12;16.20;99.90
1594;DHT22;790;47.000;16.084;2023-05-02T08:32:40;16.30;99.90
1594;DHT22;790;47.000;16.084;2023-05-02T08:35:08;16.30;99.90
1594;DHT22;790;47.000;16.084;2023-05-02T08:37:35;16.30;99.90
1594;DHT22;790;47.000;16.084;2023-05-02T08:40:03;16.40;99.90
1594;DHT22;790;47.000;16.084;2023-05-02T08:42:32;16.40;99.90
1594;DHT22;790;47.000;16.084;2023-05-02T08:45:00;16.40;99.90
1594;DHT22;790;47.000;16.084;2023-05-02T08:47:29;16.40;99.90
1594;DHT22;790;47.000;16.084;2023-05-02T08:49:58;16.40;99.90
1594;DHT22;790;47.000;16.084;2023-05-02T08:52:26;16.50;99.90
1594;DHT22;790;47.000;16.084;2023-05-02T08:54:54;16.50;99.90
1594;DHT22;790;47.000;16.084;2023-05-02T08:57:21;16.50;99.90
1594;DHT22;790;47.000;16.084;2023-05-02T08:59:50;16.60;99.90
1594;DHT22;790;47.000;16.084;2023-05-02T09:02:25;16.60;99.90
1594;DHT22;790;47.000;16.084;2023-05-02T09:04:57;16.50;99.90
1594;DHT22;790;47.000;16.084;2023-05-02T09:07:27;16.40;99.90
1594;DHT22;790;47.000;16.084;2023-05-02T09:09:54;16.50;99.90
1594;DHT22;790;47.000;16.084;2023-05-02T09:12:24;16.50;99.90
1594;DHT22;790;47.000;16.084;2023-05-02T09:15:12;16.30;99.90
1594;DHT22;790;47.000;16.084;2023-05-02T09:17:41;16.40;99.90
1594;DHT22;790;47.000;16.084;2023-05-02T09:20:10;16.30;99.90
1594;DHT22;790;47.000;16.084;2023-05-02T09:22:38;16.30;99.90
1594;DHT22;790;47.000;16.084;2023-05-02T09:25:06;16.30;99.90
1594;DHT22;790;47.000;16.084;2023-05-02T09:27:49;16.30;99.90
1594;DHT22;790;47.000;16.084;2023-05-02T09:30:21;16.40;99.90
1594;DHT22;790;47.000;16.084;2023-05-02T09:32:49;16.50;99.90
1594;DHT22;790;47.000;16.084;2023-05-02T09:35:18;16.60;99.90
1594;DHT22;790;47.000;16.084;2023-05-02T09:37:52;16.70;99.90
1594;DHT22;790;47.000;16.084;2023-05-02T09:40:20;16.70;99.90
1594;DHT22;790;47.000;16.084;2023-05-02T09:42:48;16.80;99.90
1594;DHT22;790;47.000;16.084;2023-05-02T09:45:31;17.00;99.90
1594;DHT22;790;47.000;16.084;2023-05-02T09:48:01;17.00;99.90
1594;DHT22;790;47.000;16.084;2023-05-02T09:50:33;17.10;99.90
1594;DHT22;790;47.000;16.084;2023-05-02T09:53:01;17.20;99.90
1594;DHT22;790;47.000;16.084;2023-05-02T09:55:28;17.20;99.90
1594;DHT22;790;47.000;16.084;2023-05-02T09:57:56;17.40;99.90
1594;DHT22;790;47.000;16.084;2023-05-02T10:03:19;17.40;99.90
1594;DHT22;790;47.000;16.084;2023-05-02T10:05:47;17.40;99.90
1594;DHT22;790;47.000;16.084;2023-05-02T10:08:15;17.40;99.90
1594;DHT22;790;47.000;16.084;2023-05-02T10:10:49;17.40;99.90
1594;DHT22;790;47.000;16.084;2023-05-02T10:13:18;17.50;99.90
1594;DHT22;790;47.000;16.084;2023-05-02T10:15:48;17.60;99.90
1594;DHT22;790;47.000;16.084;2023-05-02T10:18:21;17.50;99.90
1594;DHT22;790;47.000;16.084;2023-05-02T10:20:56;17.60;99.90
1594;DHT22;790;47.000;16.084;2023-05-02T10:23:25;17.60;99.90
1594;DHT22;790;47.000;16.084;2023-05-02T10:25:53;17.70;99.90
1594;DHT22;790;47.000;16.084;2023-05-02T10:28:20;17.70;99.90
1594;DHT22;790;47.000;16.084;2023-05-02T10:30:49;17.80;99.90
1594;DHT22;790;47.000;16.084;2023-05-02T10:33:19;17.80;99.90
1594;DHT22;790;47.000;16.084;2023-05-02T10:35:47;17.80;99.90
1594;DHT22;790;47.000;16.084;2023-05-02T10:38:17;17.90;99.90
1594;DHT22;790;47.000;16.084;2023-05-02T10:40:52;17.80;99.90
1594;DHT22;790;47.000;16.084;2023-05-02T10:43:24;17.90;99.90
1594;DHT22;790;47.000;16.084;2023-05-02T10:45:52;17.80;99.90
1594;DHT22;790;47.000;16.084;2023-05-02T10:48:23;17.70;99.90
1594;DHT22;790;47.000;16.084;2023-05-02T10:50:52;17.70;99.90
1594;DHT22;790;47.000;16.084;2023-05-02T10:53:26;17.80;99.90
1594;DHT22;790;47.000;16.084;2023-05-02T10:56:12;17.90;99.90
1594;DHT22;790;47.000;16.084;2023-05-02T10:58:42;17.90;99.90
1594;DHT22;790;47.000;16.084;2023-05-02T11:01:31;18.00;99.90
1594;DHT22;790;47.000;16.084;2023-05-02T11:04:03;18.00;99.90
1594;DHT22;790;47.000;16.084;2023-05-02T11:06:32;18.00;99.90
1594;DHT22;790;47.000;16.084;2023-05-02T11:09:30;18.00;99.90
1594;DHT22;790;47.000;16.084;2023-05-02T11:11:58;18.00;99.90
1594;DHT22;790;47.000;16.084;2023-05-02T11:14:46;18.00;99.90
1594;DHT22;790;47.000;16.084;2023-05-02T11:17:15;18.10;99.90
1594;DHT22;790;47.000;16.084;2023-05-02T11:23:21;18.00;99.90
1594;DHT22;790;47.000;16.084;2023-05-02T11:25:52;18.20;99.90
1594;DHT22;790;47.000;16.084;2023-05-02T11:28:40;18.20;99.90
1594;DHT22;790;47.000;16.084;2023-05-02T11:31:08;18.20;99.90
1594;DHT22;790;47.000;16.084;2023-05-02T11:33:36;18.20;99.90
1594;DHT22;790;47.000;16.084;2023-05-02T11:36:04;18.20;99.90
1594;DHT22;790;47.000;16.084;2023-05-02T11:38:37;18.20;99.90
1594;DHT22;790;47.000;16.084;2023-05-02T11:41:04;18.30;99.90
1594;DHT22;790;47.000;16.084;2023-05-02T11:43:31;18.30;99.90
1594;DHT22;790;47.000;16.084;2023-05-02T11:45:59;18.40;99.90
1594;DHT22;790;47.000;16.084;2023-05-02T11:48:27;18.50;99.90
1594;DHT22;790;47.000;16.084;2023-05-02T11:50:57;18.40;99.90
1594;DHT22;790;47.000;16.084;2023-05-02T11:53:27;18.40;99.90
1594;DHT22;790;47.000;16.084;2023-05-02T11:55:59;18.30;99.90
1594;DHT22;790;47.000;16.084;2023-05-02T11:58:27;18.30;99.90
1594;DHT22;790;47.000;16.084;2023-05-02T12:00:55;18.30;99.90
1594;DHT22;790;47.000;16.084;2023-05-02T12:03:27;18.20;99.90
1594;DHT22;790;47.000;16.084;2023-05-02T12:05:55;18.20;99.90
1594;DHT22;790;47.000;16.084;2023-05-02T12:08:27;18.10;99.90
1594;DHT22;790;47.000;16.084;2023-05-02T12:10:56;18.20;99.90
1594;DHT22;790;47.000;16.084;2023-05-02T12:13:24;18.20;99.90
1594;DHT22;790;47.000;16.084;2023-05-02T12:15:53;18.40;99.90
1594;DHT22;790;47.000;16.084;2023-05-02T12:18:22;18.40;99.90
1594;DHT22;790;47.000;16.084;2023-05-02T12:20:50;18.50;99.90
1594;DHT22;790;47.000;16.084;2023-05-02T12:23:19;18.30;99.90
1594;DHT22;790;47.000;16.084;2023-05-02T12:25:47;18.40;99.90
1594;DHT22;790;47.000;16.084;2023-05-02T12:28:18;18.40;99.90
1594;DHT22;790;47.000;16.084;2023-05-02T12:30:47;18.40;99.90
1594;DHT22;790;47.000;16.084;2023-05-02T12:33:14;18.30;99.90
1594;DHT22;790;47.000;16.084;2023-05-02T12:35:41;18.30;99.90
1594;DHT22;790;47.000;16.084;2023-05-02T12:38:12;18.30;99.90
1594;DHT22;790;47.000;16.084;2023-05-02T12:40:46;18.40;99.90
1594;DHT22;790;47.000;16.084;2023-05-02T12:43:14;18.50;99.90
1594;DHT22;790;47.000;16.084;2023-05-02T12:45:42;18.50;99.90
1594;DHT22;790;47.000;16.084;2023-05-02T12:48:23;18.40;99.90
1594;DHT22;790;47.000;16.084;2023-05-02T12:50:52;18.30;99.90
1594;DHT22;790;47.000;16.084;2023-05-02T12:53:39;18.30;99.90
1594;DHT22;790;47.000;16.084;2023-05-02T12:56:06;18.20;99.90
1594;DHT22;790;47.000;16.084;2023-05-02T12:58:43;18.10;99.90
1594;DHT22;790;47.000;16.084;2023-05-02T13:01:12;18.10;99.90
1594;DHT22;790;47.000;16.084;2023-05-02T13:03:40;18.10;99.90
1594;DHT22;790;47.000;16.084;2023-05-02T13:06:08;18.10;99.90
1594;DHT22;790;47.000;16.084;2023-05-02T13:08:35;18.00;99.90
1594;DHT22;790;47.000;16.084;2023-05-02T13:11:03;18.10;99.90
1594;DHT22;790;47.000;16.084;2023-05-02T13:13:30;18.00;99.90
1594;DHT22;790;47.000;16.084;2023-05-02T13:15:58;18.00;99.90
1594;DHT22;790;47.000;16.084;2023-05-02T13:18:26;17.90;99.90
1594;DHT22;790;47.000;16.084;2023-05-02T13:20:54;17.80;99.90
1594;DHT22;790;47.000;16.084;2023-05-02T13:23:21;17.90;99.90
1594;DHT22;790;47.000;16.084;2023-05-02T13:25:49;17.90;99.90
1594;DHT22;790;47.000;16.084;2023-05-02T13:28:16;17.90;99.90
1594;DHT22;790;47.000;16.084;2023-05-02T13:30:43;17.90;99.90
1594;DHT22;790;47.000;16.084;2023-05-02T13:33:12;17.90;99.90
1594;DHT22;790;47.000;16.084;2023-05-02T13:35:41;17.90;99.90
1594;DHT22;790;47.000;16.084;2023-05-02T13:38:09;17.80;99.90
1594;DHT22;790;47.000;16.084;2023-05-02T13:40:36;17.80;99.90
1594;DHT22;790;47.000;16.084;2023-05-02T13:43:04;17.80;99.90
1594;DHT22;790;47.000;16.084;2023-05-02T13:45:32;17.70;99.90
1594;DHT22;790;47.000;16.084;2023-05-02T13:48:00;17.80;99.90
1594;DHT22;790;47.000;16.084;2023-05-02T13:50:27;17.70;99.90
1594;DHT22;790;47.000;16.084;2023-05-02T13:52:56;17.60;99.90
1594;DHT22;790;47.000;16.084;2023-05-02T13:55:25;17.60;99.90
1594;DHT22;790;47.000;16.084;2023-05-02T13:57:52;17.60;99.90
1594;DHT22;790;47.000;16.084;2023-05-02T14:00:20;17.50;99.90
1594;DHT22;790;47.000;16.084;2023-05-02T14:02:48;17.50;99.90
1594;DHT22;790;47.000;16.084;2023-05-02T14:05:15;17.50;99.90
1594;DHT22;790;47.000;16.084;2023-05-02T14:07:42;17.40;99.90
1594;DHT22;790;47.000;16.084;2023-05-02T14:10:11;17.40;99.90
1594;DHT22;790;47.000;16.084;2023-05-02T14:12:38;17.20;99.90
1594;DHT22;790;47.000;16.084;2023-05-02T14:15:07;17.20;99.90
1594;DHT22;790;47.000;16.084;2023-05-02T14:17:35;17.30;99.90
1594;DHT22;790;47.000;16.084;2023-05-02T14:20:02;17.20;99.90
1594;DHT22;790;47.000;16.084;2023-05-02T14:22:30;17.10;99.90
1594;DHT22;790;47.000;16.084;2023-05-02T14:24:57;17.10;99.90
1594;DHT22;790;47.000;16.084;2023-05-02T14:27:26;17.10;99.90
1594;DHT22;790;47.000;16.084;2023-05-02T14:29:53;17.00;99.90
1594;DHT22;790;47.000;16.084;2023-05-02T14:32:20;16.90;99.90
1594;DHT22;790;47.000;16.084;2023-05-02T14:34:47;16.90;99.90
1594;DHT22;790;47.000;16.084;2023-05-02T14:37:14;16.90;99.90
1594;DHT22;790;47.000;16.084;2023-05-02T14:39:41;16.70;99.90
1594;DHT22;790;47.000;16.084;2023-05-02T14:42:10;16.70;99.90
1594;DHT22;790;47.000;16.084;2023-05-02T14:44:39;16.80;99.90
1594;DHT22;790;47.000;16.084;2023-05-02T14:47:06;16.70;99.90
1594;DHT22;790;47.000;16.084;2023-05-02T14:49:33;16.80;99.90
1594;DHT22;790;47.000;16.084;2023-05-02T14:52:01;16.90;99.90
1594;DHT22;790;47.000;16.084;2023-05-02T14:54:28;16.90;99.90
1594;DHT22;790;47.000;16.084;2023-05-02T14:56:58;16.80;99.90
1594;DHT22;790;47.000;16.084;2023-05-02T14:59:28;16.80;99.90
1594;DHT22;790;47.000;16.084;2023-05-02T15:01:57;16.70;99.90
1594;DHT22;790;47.000;16.084;2023-05-02T15:04:24;16.70;99.90
1594;DHT22;790;47.000;16.084;2023-05-02T15:06:51;16.80;99.90
1594;DHT22;790;47.000;16.084;2023-05-02T15:09:19;16.70;99.90
1594;DHT22;790;47.000;16.084;2023-05-02T15:11:46;16.80;99.90
1594;DHT22;790;47.000;16.084;2023-05-02T15:14:13;16.70;99.90
1594;DHT22;790;47.000;16.084;2023-05-02T15:16:40;16.80;99.90
1594;DHT22;790;47.000;16.084;2023-05-02T15:19:09;16.80;99.90
1594;DHT22;790;47.000;16.084;2023-05-02T15:21:36;16.80;99.90
1594;DHT22;790;47.000;16.084;2023-05-02T15:24:04;16.80;99.90
1594;DHT22;790;47.000;16.084;2023-05-02T15:26:32;16.80;99.90
1594;DHT22;790;47.000;16.084;2023-05-02T15:28:59;16.80;99.90
1594;DHT22;790;47.000;16.084;2023-05-02T15:31:26;16.70;99.90
1594;DHT22;790;47.000;16.084;2023-05-02T15:33:54;16.70;99.90
1594;DHT22;790;47.000;16.084;2023-05-02T15:36:25;16.80;99.90
1594;DHT22;790;47.000;16.084;2023-05-02T15:38:54;16.80;99.90
1594;DHT22;790;47.000;16.084;2023-05-02T15:41:23;16.80;99.90
1594;DHT22;790;47.000;16.084;2023-05-02T15:43:51;16.80;99.90
1594;DHT22;790;47.000;16.084;2023-05-02T15:46:18;16.80;99.90
1594;DHT22;790;47.000;16.084;2023-05-02T15:48:45;16.80;99.90
1594;DHT22;790;47.000;16.084;2023-05-02T15:51:13;16.60;99.90
1594;DHT22;790;47.000;16.084;2023-05-02T15:53:42;16.50;99.90
1594;DHT22;790;47.000;16.084;2023-05-02T15:56:10;16.40;99.90
1594;DHT22;790;47.000;16.084;2023-05-02T15:58:39;16.40;99.90
1594;DHT22;790;47.000;16.084;2023-05-02T16:01:06;16.40;99.90
1594;DHT22;790;47.000;16.084;2023-05-02T16:03:33;16.40;99.90
1594;DHT22;790;47.000;16.084;2023-05-02T16:06:01;16.30;99.90
1594;DHT22;790;47.000;16.084;2023-05-02T16:08:31;16.30;99.90
1594;DHT22;790;47.000;16.084;2023-05-02T16:10:59;16.20;99.90
1594;DHT22;790;47.000;16.084;2023-05-02T16:13:26;16.20;99.90
1594;DHT22;790;47.000;16.084;2023-05-02T16:15:54;16.10;99.90
1594;DHT22;790;47.000;16.084;2023-05-02T16:18:21;16.00;99.90
1594;DHT22;790;47.000;16.084;2023-05-02T16:20:53;15.90;99.90